sensor_id;sensor_type;location;lat;lon;timestamp;P1;durP1;ratioP1;P2;durP2;ratioP2
10847;SDS011;5477;48.806;9.154;2023-05-07T00:01:25;2.97;;;2.70;;
10847;SDS011;5477;48.806;9.154;2023-05-07T00:03:53;3.93;;;2.93;;
10847;SDS011;5477;48.806;9.154;2023-05-07T00:06:23;3.77;;;2.93;;
10847;SDS011;5477;48.806;9.154;2023-05-07T00:08:54;4.53;;;2.63;;
10847;SDS011;5477;48.806;9.154;2023-05-07T00:11:23;5.27;;;2.53;;
10847;SDS011;5477;48.806;9.154;2023-05-07T00:13:52;3.80;;;3.00;;
10847;SDS011;5477;48.806;9.154;2023-05-07T00:16:20;3.20;;;2.67;;
10847;SDS011;5477;48.806;9.154;2023-05-07T00:18:48;3.80;;;2.93;;
10847;SDS011;5477;48.806;9.154;2023-05-07T00:21:16;2.83;;;2.33;;
10847;SDS011;5477;48.806;9.154;2023-05-07T00:23:45;5.33;;;3.03;;
10847;SDS011;5477;48.806;9.154;2023-05-07T00:26:13;5.47;;;3.03;;
10847;SDS011;5477;48.806;9.154;2023-05-07T00:28:42;4.20;;;2.97;;
10847;SDS011;5477;48.806;9.154;2023-05-07T00:31:10;4.00;;;2.93;;
10847;SDS011;5477;48.806;9.154;2023-05-07T00:33:38;4.07;;;3.07;;
10847;SDS011;5477;48.806;9.154;2023-05-07T00:36:06;3.33;;;2.87;;
10847;SDS011;5477;48.806;9.154;2023-05-07T00:38:34;4.97;;;2.73;;
10847;SDS011;5477;48.806;9.154;2023-05-07T00:41:04;4.77;;;2.97;;
10847;SDS011;5477;48.806;9.154;2023-05-07T00:43:32;3.63;;;3.10;;
10847;SDS011;5477;48.806;9.154;2023-05-07T00:46:00;3.03;;;2.70;;
10847;SDS011;5477;48.806;9.154;2023-05-07T00:48:28;4.13;;;2.80;;
10847;SDS011;5477;48.806;9.154;2023-05-07T00:50:56;4.23;;;3.10;;
10847;SDS011;5477;48.806;9.154;2023-05-07T00:53:24;3.67;;;2.90;;
10847;SDS011;5477;48.806;9.154;2023-05-07T00:55:52;3.07;;;2.53;;
10847;SDS011;5477;48.806;9.154;2023-05-07T00:58:22;6.43;;;2.70;;
10847;SDS011;5477;48.806;9.154;2023-05-07T01:00:51;4.87;;;2.70;;
10847;SDS011;5477;48.806;9.154;2023-05-07T01:03:19;4.20;;;3.00;;
10847;SDS011;5477;48.806;9.154;2023-05-07T01:05:48;5.30;;;3.30;;
10847;SDS011;5477;48.806;9.154;2023-05-07T01:08:18;3.50;;;2.67;;
10847;SDS011;5477;48.806;9.154;2023-05-07T01:10:47;3.03;;;2.73;;
10847;SDS011;5477;48.806;9.154;2023-05-07T01:13:15;3.53;;;2.93;;
10847;SDS011;5477;48.806;9.154;2023-05-07T01:15:46;5.10;;;2.70;;
10847;SDS011;5477;48.806;9.154;2023-05-07T01:18:14;4.40;;;3.17;;
10847;SDS011;5477;48.806;9.154;2023-05-07T01:20:42;3.00;;;2.70;;
10847;SDS011;5477;48.806;9.154;2023-05-07T01:23:12;3.27;;;2.60;;
10847;SDS011;5477;48.806;9.154;2023-05-07T01:25:40;5.30;;;2.77;;
10847;SDS011;5477;48.806;9.154;2023-05-07T01:28:09;3.67;;;2.77;;
10847;SDS011;5477;48.806;9.154;2023-05-07T01:30:45;5.87;;;3.20;;
10847;SDS011;5477;48.806;9.154;2023-05-07T01:33:18;3.20;;;2.90;;
10847;SDS011;5477;48.806;9.154;2023-05-07T01:35:48;4.53;;;2.83;;
10847;SDS011;5477;48.806;9.154;2023-05-07T01:38:20;4.23;;;2.93;;
10847;SDS011;5477;48.806;9.154;2023-05-07T01:40:50;4.70;;;2.93;;
10847;SDS011;5477;48.806;9.154;2023-05-07T01:43:18;3.17;;;2.80;;
10847;SDS011;5477;48.806;9.154;2023-05-07T01:45:47;3.67;;;3.00;;
10847;SDS011;5477;48.806;9.154;2023-05-07T01:48:16;3.70;;;2.90;;
10847;SDS011;5477;48.806;9.154;2023-05-07T01:50:45;4.83;;;2.80;;
10847;SDS011;5477;48.806;9.154;2023-05-07T01:53:14;4.00;;;3.00;;
10847;SDS011;5477;48.806;9.154;2023-05-07T01:55:43;4.87;;;3.30;;
10847;SDS011;5477;48.806;9.154;2023-05-07T01:58:12;3.60;;;3.00;;
10847;SDS011;5477;48.806;9.154;2023-05-07T02:00:40;3.90;;;2.93;;
10847;SDS011;5477;48.806;9.154;2023-05-07T02:03:08;6.07;;;2.93;;
10847;SDS011;5477;48.806;9.154;2023-05-07T02:05:47;5.20;;;3.00;;
10847;SDS011;5477;48.806;9.154;2023-05-07T02:08:26;4.33;;;3.10;;
10847;SDS011;5477;48.806;9.154;2023-05-07T02:10:57;5.17;;;3.20;;
10847;SDS011;5477;48.806;9.154;2023-05-07T02:13:25;4.47;;;2.90;;
10847;SDS011;5477;48.806;9.154;2023-05-07T02:15:54;3.60;;;2.80;;
10847;SDS011;5477;48.806;9.154;2023-05-07T02:18:23;7.40;;;3.00;;
10847;SDS011;5477;48.806;9.154;2023-05-07T02:20:51;3.43;;;3.13;;
10847;SDS011;5477;48.806;9.154;2023-05-07T02:23:19;3.47;;;2.80;;
10847;SDS011;5477;48.806;9.154;2023-05-07T02:25:47;4.07;;;3.27;;
10847;SDS011;5477;48.806;9.154;2023-05-07T02:28:18;4.13;;;3.43;;
10847;SDS011;5477;48.806;9.154;2023-05-07T02:30:50;5.73;;;3.30;;
10847;SDS011;5477;48.806;9.154;2023-05-07T02:33:19;3.67;;;3.10;;
10847;SDS011;5477;48.806;9.154;2023-05-07T02:35:47;4.50;;;3.10;;
10847;SDS011;5477;48.806;9.154;2023-05-07T02:38:15;4.83;;;3.27;;
10847;SDS011;5477;48.806;9.154;2023-05-07T02:40:43;5.47;;;3.30;;
10847;SDS011;5477;48.806;9.154;2023-05-07T02:43:11;3.27;;;2.93;;
10847;SDS011;5477;48.806;9.154;2023-05-07T02:45:44;3.63;;;3.07;;
10847;SDS011;5477;48.806;9.154;2023-05-07T02:48:13;6.13;;;3.27;;
10847;SDS011;5477;48.806;9.154;2023-05-07T02:50:41;4.00;;;3.30;;
10847;SDS011;5477;48.806;9.154;2023-05-07T02:53:11;6.13;;;4.03;;
10847;SDS011;5477;48.806;9.154;2023-05-07T02:55:39;4.67;;;3.70;;
10847;SDS011;5477;48.806;9.154;2023-05-07T02:58:07;3.77;;;3.40;;
10847;SDS011;5477;48.806;9.154;2023-05-07T03:00:37;4.27;;;3.13;;
10847;SDS011;5477;48.806;9.154;2023-05-07T03:03:18;4.30;;;3.17;;
10847;SDS011;5477;48.806;9.154;2023-05-07T03:05:46;4.80;;;3.60;;
10847;SDS011;5477;48.806;9.154;2023-05-07T03:08:14;3.40;;;3.10;;
10847;SDS011;5477;48.806;9.154;2023-05-07T03:10:41;3.47;;;3.17;;
10847;SDS011;5477;48.806;9.154;2023-05-07T03:13:10;5.57;;;3.30;;
10847;SDS011;5477;48.806;9.154;2023-05-07T03:15:38;5.03;;;3.40;;
10847;SDS011;5477;48.806;9.154;2023-05-07T03:18:06;8.30;;;4.17;;
10847;SDS011;5477;48.806;9.154;2023-05-07T03:20:36;6.40;;;3.63;;
10847;SDS011;5477;48.806;9.154;2023-05-07T03:23:04;4.77;;;3.23;;
10847;SDS011;5477;48.806;9.154;2023-05-07T03:25:33;6.27;;;3.50;;
10847;SDS011;5477;48.806;9.154;2023-05-07T03:28:01;4.83;;;3.70;;
10847;SDS011;5477;48.806;9.154;2023-05-07T03:30:37;5.10;;;3.47;;
10847;SDS011;5477;48.806;9.154;2023-05-07T03:33:05;4.20;;;3.37;;
10847;SDS011;5477;48.806;9.154;2023-05-07T03:35:35;5.30;;;3.57;;
10847;SDS011;5477;48.806;9.154;2023-05-07T03:38:03;5.57;;;3.90;;
10847;SDS011;5477;48.806;9.154;2023-05-07T03:40:34;6.17;;;3.50;;
10847;SDS011;5477;48.806;9.154;2023-05-07T03:43:03;4.13;;;3.40;;
10847;SDS011;5477;48.806;9.154;2023-05-07T03:45:34;4.80;;;3.90;;
10847;SDS011;5477;48.806;9.154;2023-05-07T03:48:13;4.57;;;3.80;;
10847;SDS011;5477;48.806;9.154;2023-05-07T03:50:43;4.17;;;3.40;;
10847;SDS011;5477;48.806;9.154;2023-05-07T03:53:11;4.90;;;3.67;;
10847;SDS011;5477;48.806;9.154;2023-05-07T03:55:39;4.73;;;3.87;;
10847;SDS011;5477;48.806;9.154;2023-05-07T03:58:07;4.43;;;3.30;;
10847;SDS011;5477;48.806;9.154;2023-05-07T04:00:36;5.10;;;3.70;;
10847;SDS011;5477;48.806;9.154;2023-05-07T04:03:14;4.93;;;3.93;;
10847;SDS011;5477;48.806;9.154;2023-05-07T04:05:43;5.83;;;3.87;;
10847;SDS011;5477;48.806;9.154;2023-05-07T04:08:11;7.80;;;4.87;;
10847;SDS011;5477;48.806;9.154;2023-05-07T04:10:44;6.00;;;4.47;;
10847;SDS011;5477;48.806;9.154;2023-05-07T04:13:12;4.90;;;4.30;;
10847;SDS011;5477;48.806;9.154;2023-05-07T04:15:41;5.30;;;3.70;;
10847;SDS011;5477;48.806;9.154;2023-05-07T04:18:13;4.80;;;3.67;;
10847;SDS011;5477;48.806;9.154;2023-05-07T04:20:44;4.13;;;3.57;;
10847;SDS011;5477;48.806;9.154;2023-05-07T04:23:14;4.70;;;3.47;;
10847;SDS011;5477;48.806;9.154;2023-05-07T04:25:42;4.83;;;3.90;;
10847;SDS011;5477;48.806;9.154;2023-05-07T04:28:24;4.07;;;3.50;;
10847;SDS011;5477;48.806;9.154;2023-05-07T04:30:52;3.87;;;3.37;;
10847;SDS011;5477;48.806;9.154;2023-05-07T04:33:21;4.83;;;3.60;;
10847;SDS011;5477;48.806;9.154;2023-05-07T04:35:51;4.73;;;3.20;;
10847;SDS011;5477;48.806;9.154;2023-05-07T04:38:19;7.00;;;4.23;;
10847;SDS011;5477;48.806;9.154;2023-05-07T04:40:49;4.80;;;3.50;;
10847;SDS011;5477;48.806;9.154;2023-05-07T04:43:21;4.30;;;3.43;;
10847;SDS011;5477;48.806;9.154;2023-05-07T04:45:50;4.30;;;3.63;;
10847;SDS011;5477;48.806;9.154;2023-05-07T04:48:20;4.43;;;2.90;;
10847;SDS011;5477;48.806;9.154;2023-05-07T04:50:51;4.03;;;3.67;;
10847;SDS011;5477;48.806;9.154;2023-05-07T04:53:20;5.13;;;3.67;;
10847;SDS011;5477;48.806;9.154;2023-05-07T04:55:54;4.97;;;3.67;;
10847;SDS011;5477;48.806;9.154;2023-05-07T04:58:24;3.27;;;2.97;;
10847;SDS011;5477;48.806;9.154;2023-05-07T05:00:52;4.00;;;3.30;;
10847;SDS011;5477;48.806;9.154;2023-05-07T05:03:20;5.47;;;3.47;;
10847;SDS011;5477;48.806;9.154;2023-05-07T05:05:48;3.63;;;3.20;;
10847;SDS011;5477;48.806;9.154;2023-05-07T05:08:20;4.43;;;3.87;;
10847;SDS011;5477;48.806;9.154;2023-05-07T05:10:47;3.73;;;3.33;;
10847;SDS011;5477;48.806;9.154;2023-05-07T05:13:16;4.13;;;3.47;;
10847;SDS011;5477;48.806;9.154;2023-05-07T05:15:45;4.13;;;3.23;;
10847;SDS011;5477;48.806;9.154;2023-05-07T05:18:14;3.80;;;3.10;;
10847;SDS011;5477;48.806;9.154;2023-05-07T05:20:41;4.40;;;3.20;;
10847;SDS011;5477;48.806;9.154;2023-05-07T05:23:11;4.23;;;3.00;;
10847;SDS011;5477;48.806;9.154;2023-05-07T05:25:40;4.33;;;3.03;;
10847;SDS011;5477;48.806;9.154;2023-05-07T05:28:10;4.10;;;3.30;;
10847;SDS011;5477;48.806;9.154;2023-05-07T05:30:39;5.97;;;3.57;;
10847;SDS011;5477;48.806;9.154;2023-05-07T05:33:07;5.37;;;3.53;;
10847;SDS011;5477;48.806;9.154;2023-05-07T05:35:37;3.93;;;2.83;;
10847;SDS011;5477;48.806;9.154;2023-05-07T05:38:09;3.70;;;3.27;;
10847;SDS011;5477;48.806;9.154;2023-05-07T05:40:40;3.97;;;2.97;;
10847;SDS011;5477;48.806;9.154;2023-05-07T05:43:08;5.37;;;3.00;;
10847;SDS011;5477;48.806;9.154;2023-05-07T05:45:37;3.40;;;3.00;;
10847;SDS011;5477;48.806;9.154;2023-05-07T05:48:05;5.83;;;3.27;;
10847;SDS011;5477;48.806;9.154;2023-05-07T05:50:34;4.93;;;3.50;;
10847;SDS011;5477;48.806;9.154;2023-05-07T05:53:03;6.27;;;3.47;;
10847;SDS011;5477;48.806;9.154;2023-05-07T05:55:32;4.80;;;3.90;;
10847;SDS011;5477;48.806;9.154;2023-05-07T05:58:02;5.90;;;4.43;;
10847;SDS011;5477;48.806;9.154;2023-05-07T06:00:34;6.17;;;4.50;;
10847;SDS011;5477;48.806;9.154;2023-05-07T06:03:04;3.17;;;2.93;;
10847;SDS011;5477;48.806;9.154;2023-05-07T06:05:34;3.70;;;3.27;;
10847;SDS011;5477;48.806;9.154;2023-05-07T06:08:02;4.23;;;3.47;;
10847;SDS011;5477;48.806;9.154;2023-05-07T06:10:32;4.40;;;3.53;;
10847;SDS011;5477;48.806;9.154;2023-05-07T06:13:01;4.77;;;4.30;;
10847;SDS011;5477;48.806;9.154;2023-05-07T06:15:31;5.97;;;4.40;;
10847;SDS011;5477;48.806;9.154;2023-05-07T06:18:04;5.17;;;3.70;;
10847;SDS011;5477;48.806;9.154;2023-05-07T06:20:32;4.77;;;4.27;;
10847;SDS011;5477;48.806;9.154;2023-05-07T06:23:03;4.30;;;3.90;;
10847;SDS011;5477;48.806;9.154;2023-05-07T06:25:33;6.07;;;4.40;;
10847;SDS011;5477;48.806;9.154;2023-05-07T06:28:02;6.57;;;4.27;;
10847;SDS011;5477;48.806;9.154;2023-05-07T06:30:32;6.17;;;4.20;;
10847;SDS011;5477;48.806;9.154;2023-05-07T06:33:01;4.87;;;4.37;;
10847;SDS011;5477;48.806;9.154;2023-05-07T06:35:29;6.23;;;4.97;;
10847;SDS011;5477;48.806;9.154;2023-05-07T06:37:56;4.97;;;4.03;;
10847;SDS011;5477;48.806;9.154;2023-05-07T06:40:26;8.17;;;4.80;;
10847;SDS011;5477;48.806;9.154;2023-05-07T06:42:57;5.83;;;4.77;;
10847;SDS011;5477;48.806;9.154;2023-05-07T06:45:49;5.67;;;5.07;;
10847;SDS011;5477;48.806;9.154;2023-05-07T06:48:18;5.90;;;4.90;;
10847;SDS011;5477;48.806;9.154;2023-05-07T06:50:56;5.70;;;4.90;;
10847;SDS011;5477;48.806;9.154;2023-05-07T06:53:25;8.83;;;4.80;;
10847;SDS011;5477;48.806;9.154;2023-05-07T06:55:55;7.63;;;5.23;;
10847;SDS011;5477;48.806;9.154;2023-05-07T06:58:24;5.33;;;4.30;;
10847;SDS011;5477;48.806;9.154;2023-05-07T07:00:54;8.43;;;4.10;;
10847;SDS011;5477;48.806;9.154;2023-05-07T07:03:22;5.30;;;4.00;;
10847;SDS011;5477;48.806;9.154;2023-05-07T07:05:51;5.53;;;4.20;;
10847;SDS011;5477;48.806;9.154;2023-05-07T07:08:19;4.57;;;3.90;;
10847;SDS011;5477;48.806;9.154;2023-05-07T07:10:48;4.97;;;3.83;;
10847;SDS011;5477;48.806;9.154;2023-05-07T07:13:16;5.53;;;3.70;;
10847;SDS011;5477;48.806;9.154;2023-05-07T07:15:45;5.17;;;4.20;;
10847;SDS011;5477;48.806;9.154;2023-05-07T07:18:15;6.63;;;4.03;;
10847;SDS011;5477;48.806;9.154;2023-05-07T07:20:45;5.40;;;3.80;;
10847;SDS011;5477;48.806;9.154;2023-05-07T07:23:13;5.47;;;3.50;;
10847;SDS011;5477;48.806;9.154;2023-05-07T07:25:41;5.30;;;3.33;;
10847;SDS011;5477;48.806;9.154;2023-05-07T07:28:10;6.40;;;3.40;;
10847;SDS011;5477;48.806;9.154;2023-05-07T07:30:38;5.73;;;3.33;;
10847;SDS011;5477;48.806;9.154;2023-05-07T07:33:06;5.27;;;3.57;;
10847;SDS011;5477;48.806;9.154;2023-05-07T07:35:38;5.37;;;3.60;;
10847;SDS011;5477;48.806;9.154;2023-05-07T07:38:06;4.43;;;3.30;;
10847;SDS011;5477;48.806;9.154;2023-05-07T07:40:34;5.77;;;3.60;;
10847;SDS011;5477;48.806;9.154;2023-05-07T07:43:04;4.47;;;3.13;;
10847;SDS011;5477;48.806;9.154;2023-05-07T07:45:32;5.07;;;3.60;;
10847;SDS011;5477;48.806;9.154;2023-05-07T07:48:01;6.23;;;3.43;;
10847;SDS011;5477;48.806;9.154;2023-05-07T07:50:32;7.57;;;3.70;;
10847;SDS011;5477;48.806;9.154;2023-05-07T07:53:12;4.73;;;3.27;;
10847;SDS011;5477;48.806;9.154;2023-05-07T07:55:41;6.73;;;3.23;;
10847;SDS011;5477;48.806;9.154;2023-05-07T07:58:12;4.67;;;4.00;;
10847;SDS011;5477;48.806;9.154;2023-05-07T08:00:40;5.87;;;3.93;;
10847;SDS011;5477;48.806;9.154;2023-05-07T08:03:09;5.67;;;3.77;;
10847;SDS011;5477;48.806;9.154;2023-05-07T08:05:42;6.23;;;3.93;;
10847;SDS011;5477;48.806;9.154;2023-05-07T08:08:10;6.37;;;4.10;;
10847;SDS011;5477;48.806;9.154;2023-05-07T08:10:40;4.23;;;3.37;;
10847;SDS011;5477;48.806;9.154;2023-05-07T08:13:16;5.97;;;3.80;;
10847;SDS011;5477;48.806;9.154;2023-05-07T08:15:45;4.23;;;3.43;;
10847;SDS011;5477;48.806;9.154;2023-05-07T08:18:14;6.13;;;3.77;;
10847;SDS011;5477;48.806;9.154;2023-05-07T08:20:44;4.57;;;3.50;;
10847;SDS011;5477;48.806;9.154;2023-05-07T08:23:18;4.20;;;3.80;;
10847;SDS011;5477;48.806;9.154;2023-05-07T08:25:48;4.70;;;3.60;;
10847;SDS011;5477;48.806;9.154;2023-05-07T08:28:16;4.43;;;3.50;;
10847;SDS011;5477;48.806;9.154;2023-05-07T08:30:46;4.97;;;3.63;;
10847;SDS011;5477;48.806;9.154;2023-05-07T08:33:15;3.40;;;3.10;;
10847;SDS011;5477;48.806;9.154;2023-05-07T08:35:43;3.20;;;2.90;;
10847;SDS011;5477;48.806;9.154;2023-05-07T08:38:12;4.50;;;3.30;;
10847;SDS011;5477;48.806;9.154;2023-05-07T08:40:41;3.40;;;3.10;;
10847;SDS011;5477;48.806;9.154;2023-05-07T08:43:16;3.10;;;2.50;;
10847;SDS011;5477;48.806;9.154;2023-05-07T08:45:45;4.90;;;2.97;;
10847;SDS011;5477;48.806;9.154;2023-05-07T08:48:17;2.90;;;2.60;;
10847;SDS011;5477;48.806;9.154;2023-05-07T08:50:58;3.63;;;2.80;;
10847;SDS011;5477;48.806;9.154;2023-05-07T08:53:26;3.30;;;2.70;;
10847;SDS011;5477;48.806;9.154;2023-05-07T08:55:55;3.27;;;2.70;;
10847;SDS011;5477;48.806;9.154;2023-05-07T08:58:25;4.70;;;2.63;;
10847;SDS011;5477;48.806;9.154;2023-05-07T09:00:53;5.20;;;3.00;;
10847;SDS011;5477;48.806;9.154;2023-05-07T09:03:22;2.87;;;2.50;;
10847;SDS011;5477;48.806;9.154;2023-05-07T09:05:53;3.70;;;2.63;;
10847;SDS011;5477;48.806;9.154;2023-05-07T09:08:24;3.13;;;2.40;;
10847;SDS011;5477;48.806;9.154;2023-05-07T09:10:55;3.60;;;2.70;;
10847;SDS011;5477;48.806;9.154;2023-05-07T09:13:25;3.13;;;2.30;;
10847;SDS011;5477;48.806;9.154;2023-05-07T09:15:56;5.30;;;2.20;;
10847;SDS011;5477;48.806;9.154;2023-05-07T09:18:24;3.07;;;2.37;;
10847;SDS011;5477;48.806;9.154;2023-05-07T09:20:53;4.93;;;2.80;;
10847;SDS011;5477;48.806;9.154;2023-05-07T09:23:22;3.07;;;2.40;;
10847;SDS011;5477;48.806;9.154;2023-05-07T09:25:50;3.90;;;2.40;;
10847;SDS011;5477;48.806;9.154;2023-05-07T09:28:32;2.53;;;2.20;;
10847;SDS011;5477;48.806;9.154;2023-05-07T09:31:00;2.43;;;2.03;;
10847;SDS011;5477;48.806;9.154;2023-05-07T09:33:28;3.60;;;2.40;;
10847;SDS011;5477;48.806;9.154;2023-05-07T09:36:04;2.20;;;2.00;;
10847;SDS011;5477;48.806;9.154;2023-05-07T09:38:33;3.73;;;2.00;;
10847;SDS011;5477;48.806;9.154;2023-05-07T09:41:02;2.73;;;2.30;;
10847;SDS011;5477;48.806;9.154;2023-05-07T09:43:37;4.87;;;2.30;;
10847;SDS011;5477;48.806;9.154;2023-05-07T09:46:08;2.83;;;2.30;;
10847;SDS011;5477;48.806;9.154;2023-05-07T09:48:49;4.87;;;2.30;;
10847;SDS011;5477;48.806;9.154;2023-05-07T09:51:21;4.47;;;2.40;;
10847;SDS011;5477;48.806;9.154;2023-05-07T09:53:54;3.30;;;2.10;;
10847;SDS011;5477;48.806;9.154;2023-05-07T09:56:24;2.97;;;1.90;;
10847;SDS011;5477;48.806;9.154;2023-05-07T09:58:55;3.33;;;2.60;;
10847;SDS011;5477;48.806;9.154;2023-05-07T10:01:25;2.87;;;2.27;;
10847;SDS011;5477;48.806;9.154;2023-05-07T10:03:54;1.90;;;1.70;;
10847;SDS011;5477;48.806;9.154;2023-05-07T10:06:24;3.13;;;2.20;;
10847;SDS011;5477;48.806;9.154;2023-05-07T10:08:52;2.88;;;2.20;;
10847;SDS011;5477;48.806;9.154;2023-05-07T10:11:23;4.30;;;1.90;;
10847;SDS011;5477;48.806;9.154;2023-05-07T10:13:52;2.77;;;1.87;;
10847;SDS011;5477;48.806;9.154;2023-05-07T10:16:22;3.80;;;1.90;;
10847;SDS011;5477;48.806;9.154;2023-05-07T10:18:52;2.63;;;1.80;;
10847;SDS011;5477;48.806;9.154;2023-05-07T10:21:23;2.80;;;1.95;;
10847;SDS011;5477;48.806;9.154;2023-05-07T10:23:59;3.10;;;1.80;;
10847;SDS011;5477;48.806;9.154;2023-05-07T10:26:33;3.63;;;2.38;;
10847;SDS011;5477;48.806;9.154;2023-05-07T10:29:05;2.35;;;1.83;;
10847;SDS011;5477;48.806;9.154;2023-05-07T10:31:48;3.53;;;2.05;;
10847;SDS011;5477;48.806;9.154;2023-05-07T10:34:23;1.90;;;1.75;;
10847;SDS011;5477;48.806;9.154;2023-05-07T10:36:55;2.90;;;2.00;;
10847;SDS011;5477;48.806;9.154;2023-05-07T10:39:24;4.57;;;1.98;;
10847;SDS011;5477;48.806;9.154;2023-05-07T10:41:52;2.80;;;1.85;;
10847;SDS011;5477;48.806;9.154;2023-05-07T10:44:25;2.97;;;1.80;;
10847;SDS011;5477;48.806;9.154;2023-05-07T10:47:07;3.72;;;1.70;;
10847;SDS011;5477;48.806;9.154;2023-05-07T10:52:40;3.28;;;1.90;;
10847;SDS011;5477;48.806;9.154;2023-05-07T10:55:19;2.30;;;1.80;;
10847;SDS011;5477;48.806;9.154;2023-05-07T10:57:56;3.92;;;2.05;;
10847;SDS011;5477;48.806;9.154;2023-05-07T11:01:03;3.75;;;1.83;;
10847;SDS011;5477;48.806;9.154;2023-05-07T11:04:12;2.35;;;1.80;;
10847;SDS011;5477;48.806;9.154;2023-05-07T11:07:19;2.83;;;1.60;;
10847;SDS011;5477;48.806;9.154;2023-05-07T11:10:03;2.67;;;1.83;;
10847;SDS011;5477;48.806;9.154;2023-05-07T11:12:53;3.65;;;2.03;;
10847;SDS011;5477;48.806;9.154;2023-05-07T11:18:47;3.38;;;2.10;;
10847;SDS011;5477;48.806;9.154;2023-05-07T11:21:33;3.90;;;1.77;;
10847;SDS011;5477;48.806;9.154;2023-05-07T11:24:12;2.20;;;1.70;;
10847;SDS011;5477;48.806;9.154;2023-05-07T11:26:49;3.60;;;1.98;;
10847;SDS011;5477;48.806;9.154;2023-05-07T11:29:20;5.00;;;3.38;;
10847;SDS011;5477;48.806;9.154;2023-05-07T11:31:55;3.40;;;2.35;;
10847;SDS011;5477;48.806;9.154;2023-05-07T11:34:29;3.97;;;2.17;;
10847;SDS011;5477;48.806;9.154;2023-05-07T11:36:58;6.07;;;2.20;;
10847;SDS011;5477;48.806;9.154;2023-05-07T11:40:02;3.03;;;1.90;;
10847;SDS011;5477;48.806;9.154;2023-05-07T11:42:32;2.22;;;2.00;;
10847;SDS011;5477;48.806;9.154;2023-05-07T11:45:02;3.38;;;2.05;;
10847;SDS011;5477;48.806;9.154;2023-05-07T11:47:30;2.60;;;1.90;;
10847;SDS011;5477;48.806;9.154;2023-05-07T11:50:03;4.60;;;2.67;;
10847;SDS011;5477;48.806;9.154;2023-05-07T11:52:34;3.50;;;2.30;;
10847;SDS011;5477;48.806;9.154;2023-05-07T11:55:02;3.70;;;2.10;;
10847;SDS011;5477;48.806;9.154;2023-05-07T11:57:32;3.73;;;2.10;;
10847;SDS011;5477;48.806;9.154;2023-05-07T12:00:00;3.70;;;2.10;;
10847;SDS011;5477;48.806;9.154;2023-05-07T12:02:40;4.67;;;3.67;;
10847;SDS011;5477;48.806;9.154;2023-05-07T12:05:10;5.10;;;2.30;;
10847;SDS011;5477;48.806;9.154;2023-05-07T12:07:38;3.33;;;2.00;;
10847;SDS011;5477;48.806;9.154;2023-05-07T12:10:06;3.27;;;2.03;;
10847;SDS011;5477;48.806;9.154;2023-05-07T12:12:38;4.97;;;2.60;;
10847;SDS011;5477;48.806;9.154;2023-05-07T12:15:08;4.90;;;2.00;;
10847;SDS011;5477;48.806;9.154;2023-05-07T12:17:37;4.13;;;2.57;;
10847;SDS011;5477;48.806;9.154;2023-05-07T12:20:07;3.00;;;2.43;;
10847;SDS011;5477;48.806;9.154;2023-05-07T12:22:37;3.90;;;2.70;;
10847;SDS011;5477;48.806;9.154;2023-05-07T12:25:05;5.00;;;2.90;;
10847;SDS011;5477;48.806;9.154;2023-05-07T12:27:36;4.33;;;3.23;;
10847;SDS011;5477;48.806;9.154;2023-05-07T12:30:05;2.37;;;2.00;;
10847;SDS011;5477;48.806;9.154;2023-05-07T12:32:36;3.70;;;1.87;;
10847;SDS011;5477;48.806;9.154;2023-05-07T12:35:05;4.80;;;2.40;;
10847;SDS011;5477;48.806;9.154;2023-05-07T12:37:34;5.50;;;2.80;;
10847;SDS011;5477;48.806;9.154;2023-05-07T12:40:04;4.60;;;2.50;;
10847;SDS011;5477;48.806;9.154;2023-05-07T12:42:35;6.30;;;2.80;;
10847;SDS011;5477;48.806;9.154;2023-05-07T12:45:10;4.60;;;2.80;;
10847;SDS011;5477;48.806;9.154;2023-05-07T12:47:42;7.63;;;3.23;;
10847;SDS011;5477;48.806;9.154;2023-05-07T12:50:12;5.43;;;3.13;;
10847;SDS011;5477;48.806;9.154;2023-05-07T12:52:41;6.23;;;3.57;;
10847;SDS011;5477;48.806;9.154;2023-05-07T12:55:12;7.43;;;3.23;;
10847;SDS011;5477;48.806;9.154;2023-05-07T12:57:42;5.97;;;2.70;;
10847;SDS011;5477;48.806;9.154;2023-05-07T13:00:13;4.87;;;2.33;;
10847;SDS011;5477;48.806;9.154;2023-05-07T13:02:42;7.07;;;2.70;;
10847;SDS011;5477;48.806;9.154;2023-05-07T13:05:11;7.23;;;2.97;;
10847;SDS011;5477;48.806;9.154;2023-05-07T13:07:41;9.83;;;3.37;;
10847;SDS011;5477;48.806;9.154;2023-05-07T13:10:21;6.57;;;2.73;;
10847;SDS011;5477;48.806;9.154;2023-05-07T13:12:49;5.27;;;2.50;;
10847;SDS011;5477;48.806;9.154;2023-05-07T13:15:17;2.73;;;1.70;;
10847;SDS011;5477;48.806;9.154;2023-05-07T13:17:46;6.97;;;2.47;;
10847;SDS011;5477;48.806;9.154;2023-05-07T13:20:14;5.73;;;2.57;;
10847;SDS011;5477;48.806;9.154;2023-05-07T13:22:44;9.67;;;2.70;;
10847;SDS011;5477;48.806;9.154;2023-05-07T13:25:12;4.10;;;2.50;;
10847;SDS011;5477;48.806;9.154;2023-05-07T13:27:41;6.37;;;2.40;;
10847;SDS011;5477;48.806;9.154;2023-05-07T13:30:12;2.80;;;1.90;;
10847;SDS011;5477;48.806;9.154;2023-05-07T13:32:40;2.90;;;1.87;;
10847;SDS011;5477;48.806;9.154;2023-05-07T13:35:08;3.00;;;1.90;;
10847;SDS011;5477;48.806;9.154;2023-05-07T13:37:36;3.20;;;1.90;;
10847;SDS011;5477;48.806;9.154;2023-05-07T13:40:07;1.77;;;1.60;;
10847;SDS011;5477;48.806;9.154;2023-05-07T13:42:36;2.67;;;2.00;;
10847;SDS011;5477;48.806;9.154;2023-05-07T13:45:05;4.20;;;1.83;;
10847;SDS011;5477;48.806;9.154;2023-05-07T13:47:33;1.73;;;1.60;;
10847;SDS011;5477;48.806;9.154;2023-05-07T13:50:06;3.97;;;1.70;;
10847;SDS011;5477;48.806;9.154;2023-05-07T13:52:35;3.77;;;1.60;;
10847;SDS011;5477;48.806;9.154;2023-05-07T13:55:03;1.50;;;1.40;;
10847;SDS011;5477;48.806;9.154;2023-05-07T13:57:34;3.23;;;1.47;;
10847;SDS011;5477;48.806;9.154;2023-05-07T14:00:02;3.00;;;1.20;;
10847;SDS011;5477;48.806;9.154;2023-05-07T14:02:40;1.50;;;1.20;;
10847;SDS011;5477;48.806;9.154;2023-05-07T14:05:08;2.33;;;1.30;;
10847;SDS011;5477;48.806;9.154;2023-05-07T14:07:36;6.17;;;2.63;;
10847;SDS011;5477;48.806;9.154;2023-05-07T14:10:06;3.43;;;2.23;;
10847;SDS011;5477;48.806;9.154;2023-05-07T14:12:36;5.00;;;2.23;;
10847;SDS011;5477;48.806;9.154;2023-05-07T14:15:04;3.27;;;1.60;;
10847;SDS011;5477;48.806;9.154;2023-05-07T14:17:33;2.33;;;1.90;;
10847;SDS011;5477;48.806;9.154;2023-05-07T14:20:01;4.47;;;1.73;;
10847;SDS011;5477;48.806;9.154;2023-05-07T14:22:29;3.90;;;2.30;;
10847;SDS011;5477;48.806;9.154;2023-05-07T14:24:57;3.47;;;2.70;;
10847;SDS011;5477;48.806;9.154;2023-05-07T14:27:32;2.93;;;2.63;;
10847;SDS011;5477;48.806;9.154;2023-05-07T14:30:00;3.43;;;2.60;;
10847;SDS011;5477;48.806;9.154;2023-05-07T14:32:28;4.30;;;2.23;;
10847;SDS011;5477;48.806;9.154;2023-05-07T14:34:56;4.10;;;2.30;;
10847;SDS011;5477;48.806;9.154;2023-05-07T14:37:24;5.60;;;2.97;;
10847;SDS011;5477;48.806;9.154;2023-05-07T14:39:52;6.50;;;2.73;;
10847;SDS011;5477;48.806;9.154;2023-05-07T14:42:20;4.17;;;2.90;;
10847;SDS011;5477;48.806;9.154;2023-05-07T14:44:49;4.13;;;3.00;;
10847;SDS011;5477;48.806;9.154;2023-05-07T14:47:19;3.27;;;2.63;;
10847;SDS011;5477;48.806;9.154;2023-05-07T14:49:47;3.43;;;2.80;;
10847;SDS011;5477;48.806;9.154;2023-05-07T14:52:14;4.23;;;2.87;;
10847;SDS011;5477;48.806;9.154;2023-05-07T14:54:42;3.93;;;2.40;;
10847;SDS011;5477;48.806;9.154;2023-05-07T14:57:11;5.13;;;2.73;;
10847;SDS011;5477;48.806;9.154;2023-05-07T14:59:42;2.93;;;2.27;;
10847;SDS011;5477;48.806;9.154;2023-05-07T15:02:12;6.17;;;2.60;;
10847;SDS011;5477;48.806;9.154;2023-05-07T15:04:40;3.93;;;2.43;;
10847;SDS011;5477;48.806;9.154;2023-05-07T15:07:14;3.93;;;2.30;;
10847;SDS011;5477;48.806;9.154;2023-05-07T15:09:43;4.13;;;2.53;;
10847;SDS011;5477;48.806;9.154;2023-05-07T15:12:12;3.47;;;2.20;;
10847;SDS011;5477;48.806;9.154;2023-05-07T15:14:40;4.30;;;2.60;;
10847;SDS011;5477;48.806;9.154;2023-05-07T15:17:08;2.50;;;2.30;;
10847;SDS011;5477;48.806;9.154;2023-05-07T15:19:38;2.63;;;2.20;;
10847;SDS011;5477;48.806;9.154;2023-05-07T15:22:06;4.27;;;2.47;;
10847;SDS011;5477;48.806;9.154;2023-05-07T15:24:34;2.20;;;2.00;;
10847;SDS011;5477;48.806;9.154;2023-05-07T15:27:02;4.57;;;2.20;;